Flight Track Log - Related Links

Times and Time Zones

All times are in EDT time to prevent confusion due to time zone crossing. See the SWA1969 flight status page for this flight to view local times or setup timezone preferences in your user account.

Time Position Orientation Groundspeed Altitude Reporting Facility
EDT Latitude Longitude Course Direction KTS MPH feet Rate Location/Type
Tue 09:04:45 AM 32.8333 -96.8333 128° Southeast 162 186 1,500  Level Dallas / Fort Worth TRACON
Tue 09:05:39 AM 32.8000 -96.7833 128° Southeast 221 254 3,100 2,368 Climbing Dallas / Fort Worth TRACON
Tue 09:06:39 AM 32.7667 -96.7333 128° Southeast 239 275 6,000 2,950 Climbing Dallas / Fort Worth TRACON
Tue 09:07:39 AM 32.8333 -96.7000 23° Northeast 276 318 9,000 2,580 Climbing Dallas / Fort Worth TRACON
Tue 09:10:06 AM 33.0219 -96.8089 334° Northwest 339 390 14,900 2,464 Climbing Fort Worth Center
Tue 09:11:06 AM 33.1203 -96.8778 330° Northwest 360 414 17,500 2,500 Climbing Fort Worth Center
Tue 09:12:06 AM 33.2061 -96.9367 330° Northwest 384 442 19,900 2,550 Climbing Fort Worth Center
Tue 09:13:06 AM 33.3128 -97.0133 329° Northwest 400 460 22,600 2,250 Climbing Fort Worth Center
Tue 09:14:06 AM 33.4153 -97.0178 358° North 396 456 24,400 1,850 Climbing Fort Worth Center
Tue 09:15:06 AM 33.5422 -96.9772 15° North 415 478 26,300 1,800 Climbing Fort Worth Center
Tue 09:16:06 AM 33.6569 -96.9394 15° North 425 489 28,000 1,550 Climbing Fort Worth Center
Tue 09:17:06 AM 33.7778 -96.9011 15° North 436 502 29,400 1,550 Climbing Fort Worth Center
Tue 09:18:06 AM 33.8967 -96.8631 15° North 441 507 31,100 1,600 Climbing Fort Worth Center
Tue 09:19:06 AM 34.0175 -96.8247 15° North 436 502 32,600 1,400 Climbing Fort Worth Center
Tue 09:20:06 AM 34.1383 -96.7836 16° North 436 502 33,900 1,200 Climbing Fort Worth Center
Tue 09:21:06 AM 34.2592 -96.7425 16° North 441 507 35,000 550 Climbing Fort Worth Center
Tue 09:22:06 AM 34.3781 -96.7064 14° North 441 507 35,000  Level Fort Worth Center
Tue 09:23:06 AM 34.4986 -96.6678 15° North 441 507 35,000  Level Fort Worth Center
Tue 09:24:06 AM 34.6194 -96.6264 16° North 436 502 35,000  Level Fort Worth Center
Tue 09:25:06 AM 34.7361 -96.5872 15° North 436 502 35,000  Level Fort Worth Center
Tue 09:26:06 AM 34.8547 -96.5456 16° North 436 502 35,000  Level Fort Worth Center
Tue 09:27:06 AM 34.9733 -96.5089 14° North 436 502 35,000  Level Fort Worth Center
Tue 09:28:06 AM 35.0939 -96.4669 16° North 436 502 35,000  Level Fort Worth Center
Tue 09:30:30 AM 35.3744 -96.3719 15° North 440 506 35,000  Level Kansas City Center
Tue 09:31:32 AM 35.4917 -96.3319 16° North 440 506 35,000  Level Kansas City Center
Tue 09:32:34 AM 35.6100 -96.2922 15° North 442 509 35,000  Level Kansas City Center
Tue 09:33:36 AM 35.7292 -96.2517 15° North 444 511 35,000  Level Kansas City Center
Tue 09:34:38 AM 35.8586 -96.2083 15° North 442 509 35,000  Level Kansas City Center
Tue 09:35:40 AM 35.9775 -96.1689 15° North 440 506 35,000  Level Kansas City Center
Tue 09:36:42 AM 36.0961 -96.1289 15° North 439 505 35,000  Level Kansas City Center
Tue 09:37:44 AM 36.2144 -96.0886 15° North 438 504 35,000  Level Kansas City Center
Tue 09:38:46 AM 36.3553 -96.0394 16° North 436 502 35,000  Level Kansas City Center
Tue 09:39:48 AM 36.4731 -95.9994 15° North 434 499 35,000  Level Kansas City Center
Tue 09:40:50 AM 36.5883 -95.9586 16° North 429 494 35,000  Level Kansas City Center
Tue 09:41:52 AM 36.7036 -95.9186 16° North 426 490 35,000  Level Kansas City Center
Tue 09:42:54 AM 36.8178 -95.8800 15° North 423 487 35,000  Level Kansas City Center
Tue 09:43:56 AM 36.9322 -95.8394 16° North 423 487 35,000  Level Kansas City Center
Tue 09:44:58 AM 37.0467 -95.7997 15° North 424 488 35,000  Level Kansas City Center
Tue 09:46:00 AM 37.1617 -95.7592 16° North 425 489 35,000 -242 Level Kansas City Center
Tue 09:47:02 AM 37.3025 -95.7167 13° North 430 495 34,500 -726 Descending Kansas City Center
Tue 09:48:04 AM 37.4197 -95.6969 North 427 491 33,500 -919 Descending Kansas City Center
Tue 09:49:06 AM 37.5378 -95.6714 10° North 429 494 32,600 -919 Descending Kansas City Center
Tue 09:50:08 AM 37.6572 -95.6489 North 432 497 31,600 -919 Descending Kansas City Center
Tue 09:51:10 AM 37.7797 -95.6258 North 440 506 30,700 -774 Descending Kansas City Center
Tue 09:52:12 AM 37.9025 -95.6011 North 443 510 30,000 -339 Descending Kansas City Center
Tue 09:53:14 AM 38.0339 -95.5767 North 450 518 30,000  Level Kansas City Center
Tue 09:54:16 AM 38.1692 -95.5492 North 447 514 30,000 -919 Level Kansas City Center
Tue 09:55:18 AM 38.2861 -95.5258 North 443 510 28,100 -2,274 Descending Kansas City Center
Tue 09:56:20 AM 38.4214 -95.5000 North 440 506 25,300 -2,419 Descending Kansas City Center
Tue 09:57:22 AM 38.5331 -95.4761 10° North 426 490 23,100 -2,323 Descending Kansas City Center
Tue 09:58:24 AM 38.6592 -95.4503 North 412 474 20,500 -2,274 Descending Kansas City Center
Tue 09:59:26 AM 38.7639 -95.4286 North 399 459 18,400 -2,274 Descending Kansas City Center
Tue 10:00:28 AM 38.8600 -95.3444 34° Northeast 388 447 15,800 -2,274 Descending Kansas City Center
Tue 10:01:30 AM 38.9286 -95.2464 48° Northeast 388 447 13,700 -1,839 Descending Kansas City Center
Tue 10:02:32 AM 39.0086 -95.1342 47° Northeast 385 443 12,000 -1,210 Descending Kansas City Center
Tue 10:03:34 AM 39.0811 -95.0592 39° Northeast 356 410 11,200 -960 Descending Kansas City Center
Tue 10:04:37 AM 39.1714 -94.9936 29° Northeast 337 388 10,000 -1,008 Descending Kansas City Center
Tue 10:05:39 AM 39.2397 -94.9408 31° Northeast 305 351 9,100 -1,210 Descending Kansas City Center
Tue 10:06:41 AM 39.3178 -94.8772 32° Northeast 300 345 7,500 -1,645 Descending Kansas City Center
Tue 10:07:43 AM 39.3861 -94.8247 31° Northeast 300 345 5,700 -1,597 Descending Kansas City Center
Tue 10:08:45 AM 39.4672 -94.7661 29° Northeast 301 346 4,200 -919 Descending Kansas City Center
Tue 10:09:47 AM 39.4736 -94.7053 82° East 214 246 3,800 -629 Descending Kansas City Center
Tue 10:10:49 AM 39.4300 -94.6897 165° South 148 170 2,900 -726 Descending Kansas City Center
Tue 10:11:51 AM 39.3956 -94.6986 191° South 132 152 2,300 -581 Descending Kansas City Center
Tue 10:12:53 AM 39.3619 -94.7092 194° South 130 150 1,700 -677 Descending Kansas City Center
Tue 10:13:55 AM 39.3194 -94.7217 193° South 142 163 900 -774 Descending Kansas City Center

Login

Don't have an account? Register now (free) for customized features, flight alerts, and more!